»·PEaware :: N515ZT KSBA-KSAN

N515ZT :: KSBA-KSAN

FLIGHT INFORMATION

Flight Status: Arrived
Operator: Privately registered:
United States
More flights under this callsign
Pilot: Marty P. (27464)
Aircraft: BEECH AIRCRAFT BARON
(BE58)
More flights by this aircraft type
Origin: KSBA Santa Barbara Mun
United States
Destination: KSAN San Diego Intl-Lindbergh
United States
More flights between these airports :: More routes between these airports
Route: +
File this flight plan on PilotEdge
Remarks: FF
Altitude:
(Current/Filed)
13,500ft
Speed:
(Current/Filed)
0kts
Departed: 05-Feb-20 01:31 PM
Arrived: 05-Feb-20 02:28 PM
Distance/Time
Traveled:
167nm/0:57
Distance/Time
To Go:
Arrived

Flight Plot

Page will automatically refresh every two minutes.

Flight plan parsing failed; only flown route is shown


Map Options




Map Legend


Flown Route
Filed Route
Departure Airport
Arrival Airport
Navaid (VOR, NDB)
Fix

Horizontal Profiles

Position Reports

Time Latitude Longitude Heading Altitude Ground
Speed
05-Feb-20 13:26 34.432566 -119.835098 71 14ft 0kts
05-Feb-20 13:27 34.431670 -119.836522 251 14ft 10kts
05-Feb-20 13:28 34.430713 -119.839729 247 14ft 0kts
05-Feb-20 13:29 34.430713 -119.839729 247 14ft 0kts
05-Feb-20 13:30 34.429673 -119.840036 166 14ft 19kts
05-Feb-20 13:31 34.403245 -119.831361 165 688ft 128kts
05-Feb-20 13:32 34.371212 -119.814004 109 1976ft 136kts
05-Feb-20 13:33 34.362475 -119.764446 102 2787ft 160kts
05-Feb-20 13:34 34.338869 -119.721371 129 3892ft 155kts
05-Feb-20 13:35 34.309481 -119.680794 128 5028ft 163kts
05-Feb-20 13:36 34.280016 -119.640382 127 6327ft 158kts
05-Feb-20 13:37 34.250903 -119.600470 125 7548ft 158kts
05-Feb-20 13:38 34.222271 -119.561365 122 8889ft 142kts
05-Feb-20 13:39 34.201805 -119.533156 120 9782ft 139kts
05-Feb-20 13:40 34.175864 -119.497672 121 10713ft 142kts
05-Feb-20 13:41 34.149297 -119.461377 121 11635ft 146kts
05-Feb-20 13:41 34.126692 -119.430547 120 12418ft 147kts
05-Feb-20 13:42 34.099509 -119.393463 119 13278ft 147kts
05-Feb-20 13:44 34.065071 -119.346228 123 13536ft 189kts
05-Feb-20 13:44 34.034938 -119.305497 123 13515ft 206kts
05-Feb-20 13:45 33.995809 -119.252437 123 13512ft 214kts
05-Feb-20 13:47 33.949216 -119.189307 124 13513ft 216kts
05-Feb-20 13:47 33.915858 -119.144162 123 13514ft 217kts
05-Feb-20 13:48 33.876491 -119.090722 123 13550ft 213kts
05-Feb-20 13:49 33.836374 -119.036758 123 13504ft 216kts
05-Feb-20 13:50 33.796347 -118.982830 123 13505ft 216kts
05-Feb-20 13:51 33.756366 -118.929018 123 13505ft 216kts
05-Feb-20 13:52 33.716279 -118.875162 123 13506ft 216kts
05-Feb-20 13:53 33.676000 -118.821117 123 13506ft 216kts
05-Feb-20 13:54 33.635449 -118.766787 123 13506ft 217kts
05-Feb-20 13:55 33.595186 -118.712933 123 13507ft 217kts
05-Feb-20 13:56 33.554951 -118.659217 122 13535ft 216kts
05-Feb-20 13:57 33.514596 -118.605381 123 13536ft 217kts
05-Feb-20 13:58 33.474040 -118.551372 123 13535ft 217kts
05-Feb-20 13:59 33.433557 -118.497541 123 13537ft 218kts
05-Feb-20 14:00 33.392936 -118.443588 123 13549ft 217kts
05-Feb-20 14:01 33.357712 -118.385938 111 13556ft 212kts
05-Feb-20 14:02 33.354300 -118.330350 66 13557ft 180kts
05-Feb-20 14:03 33.354227 -118.267517 84 13554ft 194kts
05-Feb-20 14:04 33.343767 -118.203829 80 13556ft 191kts
05-Feb-20 14:05 33.338013 -118.139549 86 13553ft 195kts
05-Feb-20 14:06 33.329723 -118.075104 86 13470ft 198kts
05-Feb-20 14:07 33.320288 -118.003451 89 12182ft 227kts
05-Feb-20 14:08 33.310443 -117.929839 91 11026ft 221kts
05-Feb-20 14:09 33.300771 -117.857648 93 9950ft 222kts
05-Feb-20 14:10 33.290753 -117.783605 95 8943ft 227kts
05-Feb-20 14:11 33.280643 -117.709414 96 7968ft 226kts
05-Feb-20 14:12 33.270647 -117.636070 96 6817ft 220kts
05-Feb-20 14:13 33.260845 -117.564401 96 5671ft 219kts
05-Feb-20 14:14 33.251325 -117.495109 96 5500ft 202kts
05-Feb-20 14:15 33.241468 -117.429994 115 5479ft 201kts
05-Feb-20 14:16 33.193348 -117.397011 156 5474ft 204kts
05-Feb-20 14:17 33.137720 -117.371205 158 4443ft 213kts
05-Feb-20 14:18 33.084383 -117.347105 159 3473ft 199kts
05-Feb-20 14:19 33.032219 -117.323645 159 3491ft 202kts
05-Feb-20 14:20 32.979154 -117.299767 159 3491ft 204kts
05-Feb-20 14:21 32.925966 -117.275866 159 3492ft 204kts
05-Feb-20 14:22 32.872851 -117.252039 159 3491ft 204kts
05-Feb-20 14:23 32.822395 -117.221549 141 3052ft 204kts
05-Feb-20 14:24 32.788084 -117.189243 141 1721ft 128kts
05-Feb-20 14:25 32.761202 -117.162077 142 1066ft 149kts
05-Feb-20 14:26 32.730206 -117.175202 275 260ft 87kts
05-Feb-20 14:27 32.732609 -117.188531 201 18ft 7kts
05-Feb-20 14:28 32.732502 -117.188619 228 18ft 0kts
05-Feb-20 14:29 32.732502 -117.188619 228 18ft 0kts
05-Feb-20 14:30 32.732163 -117.188191 107 18ft 0kts
05-Feb-20 14:31 32.732527 -117.189693 286 18ft 14kts
05-Feb-20 14:32 32.730943 -117.191193 193 18ft 0kts

Navigation Log

Ident Type
Flight plan parsing failed, navigation log unavailable